sensor_id;sensor_type;location;lat;lon;timestamp;noise_LAeq;noise_LA_min;noise_LA_max;noise_LA01;noise_LA95
77133;Laerm;26708;50.304;19.028;2023-03-30T00:01:55;40.75;37.32;48.13;;
77133;Laerm;26708;50.304;19.028;2023-03-30T00:04:01;40.83;38.00;47.75;;
77133;Laerm;26708;50.304;19.028;2023-03-30T00:06:06;47.81;38.00;64.75;;
77133;Laerm;26708;50.304;19.028;2023-03-30T00:08:11;40.17;37.87;43.17;;
77133;Laerm;26708;50.304;19.028;2023-03-30T00:10:20;40.65;38.09;45.96;;
77133;Laerm;26708;50.304;19.028;2023-03-30T00:12:24;40.14;37.17;44.24;;
77133;Laerm;26708;50.304;19.028;2023-03-30T00:14:29;41.33;37.36;50.32;;
77133;Laerm;26708;50.304;19.028;2023-03-30T00:16:39;40.60;37.78;47.33;;
77133;Laerm;26708;50.304;19.028;2023-03-30T00:18:46;40.16;38.03;42.83;;
77133;Laerm;26708;50.304;19.028;2023-03-30T00:20:52;40.03;37.54;43.44;;
77133;Laerm;26708;50.304;19.028;2023-03-30T00:22:57;39.96;37.40;42.64;;
77133;Laerm;26708;50.304;19.028;2023-03-30T00:25:03;40.27;37.86;43.12;;
77133;Laerm;26708;50.304;19.028;2023-03-30T00:27:07;52.22;38.61;72.46;;
77133;Laerm;26708;50.304;19.028;2023-03-30T00:29:12;43.17;38.48;49.95;;
77133;Laerm;26708;50.304;19.028;2023-03-30T00:31:17;42.43;38.09;52.70;;
77133;Laerm;26708;50.304;19.028;2023-03-30T00:33:23;40.24;37.28;43.80;;
77133;Laerm;26708;50.304;19.028;2023-03-30T00:35:31;40.09;37.53;42.46;;
77133;Laerm;26708;50.304;19.028;2023-03-30T00:37:37;40.01;37.60;43.50;;
77133;Laerm;26708;50.304;19.028;2023-03-30T00:39:42;40.11;37.67;42.55;;
77133;Laerm;26708;50.304;19.028;2023-03-30T00:41:48;39.91;37.32;42.17;;
77133;Laerm;26708;50.304;19.028;2023-03-30T00:43:58;41.62;37.97;50.69;;
77133;Laerm;26708;50.304;19.028;2023-03-30T00:46:03;41.88;38.08;50.91;;
77133;Laerm;26708;50.304;19.028;2023-03-30T00:48:14;41.41;37.77;51.07;;
77133;Laerm;26708;50.304;19.028;2023-03-30T00:50:26;40.17;38.06;43.88;;
77133;Laerm;26708;50.304;19.028;2023-03-30T00:52:40;40.58;38.02;45.43;;
77133;Laerm;26708;50.304;19.028;2023-03-30T00:54:47;40.17;37.67;43.23;;
77133;Laerm;26708;50.304;19.028;2023-03-30T00:56:52;41.29;37.81;51.57;;
77133;Laerm;26708;50.304;19.028;2023-03-30T00:58:58;40.35;37.86;46.93;;
77133;Laerm;26708;50.304;19.028;2023-03-30T01:01:11;40.55;37.37;46.64;;
77133;Laerm;26708;50.304;19.028;2023-03-30T01:03:27;40.00;37.60;42.64;;
77133;Laerm;26708;50.304;19.028;2023-03-30T01:05:33;41.47;38.07;48.32;;
77133;Laerm;26708;50.304;19.028;2023-03-30T01:07:42;40.84;37.86;48.27;;
77133;Laerm;26708;50.304;19.028;2023-03-30T01:09:51;40.39;37.78;45.34;;
77133;Laerm;26708;50.304;19.028;2023-03-30T01:11:56;39.99;37.82;42.67;;
77133;Laerm;26708;50.304;19.028;2023-03-30T01:14:06;41.64;38.23;49.04;;
77133;Laerm;26708;50.304;19.028;2023-03-30T01:16:27;40.35;37.47;46.12;;
77133;Laerm;26708;50.304;19.028;2023-03-30T01:18:49;51.00;38.56;64.64;;
77133;Laerm;26708;50.304;19.028;2023-03-30T01:21:56;40.56;37.93;46.22;;
77133;Laerm;26708;50.304;19.028;2023-03-30T01:27:57;40.28;37.58;43.78;;
77133;Laerm;26708;50.304;19.028;2023-03-30T01:30:31;51.39;37.46;69.81;;
77133;Laerm;26708;50.304;19.028;2023-03-30T01:33:31;44.39;38.25;50.27;;
77133;Laerm;26708;50.304;19.028;2023-03-30T01:36:07;43.12;38.88;50.49;;
77133;Laerm;26708;50.304;19.028;2023-03-30T01:41:13;40.36;38.05;43.38;;
77133;Laerm;26708;50.304;19.028;2023-03-30T01:43:36;41.71;37.81;55.18;;
77133;Laerm;26708;50.304;19.028;2023-03-30T01:45:53;40.43;37.93;43.31;;
77133;Laerm;26708;50.304;19.028;2023-03-30T01:48:11;42.08;38.02;51.77;;
77133;Laerm;26708;50.304;19.028;2023-03-30T01:50:26;40.55;37.81;55.26;;
77133;Laerm;26708;50.304;19.028;2023-03-30T01:52:40;40.38;37.66;42.72;;
77133;Laerm;26708;50.304;19.028;2023-03-30T01:54:55;46.70;38.97;58.14;;
77133;Laerm;26708;50.304;19.028;2023-03-30T01:57:14;40.87;38.10;47.01;;
77133;Laerm;26708;50.304;19.028;2023-03-30T01:59:28;42.11;38.64;49.28;;
77133;Laerm;26708;50.304;19.028;2023-03-30T02:01:40;42.78;38.33;49.24;;
77133;Laerm;26708;50.304;19.028;2023-03-30T02:03:56;42.86;37.99;49.13;;
77133;Laerm;26708;50.304;19.028;2023-03-30T02:06:10;42.36;37.81;52.67;;
77133;Laerm;26708;50.304;19.028;2023-03-30T02:08:24;48.51;38.13;66.98;;
77133;Laerm;26708;50.304;19.028;2023-03-30T02:10:36;40.91;38.16;51.71;;
77133;Laerm;26708;50.304;19.028;2023-03-30T02:12:47;42.47;38.34;50.19;;
77133;Laerm;26708;50.304;19.028;2023-03-30T02:15:00;42.14;38.49;52.16;;
77133;Laerm;26708;50.304;19.028;2023-03-30T02:17:14;43.03;38.52;52.26;;
77133;Laerm;26708;50.304;19.028;2023-03-30T02:19:21;52.80;38.42;70.28;;
77133;Laerm;26708;50.304;19.028;2023-03-30T02:21:26;50.69;38.07;67.59;;
77133;Laerm;26708;50.304;19.028;2023-03-30T02:23:38;41.53;38.18;59.79;;
77133;Laerm;26708;50.304;19.028;2023-03-30T02:25:45;41.14;38.09;46.64;;
77133;Laerm;26708;50.304;19.028;2023-03-30T02:27:55;42.01;37.66;52.22;;
77133;Laerm;26708;50.304;19.028;2023-03-30T02:30:00;42.17;39.08;47.31;;
77133;Laerm;26708;50.304;19.028;2023-03-30T02:32:05;43.35;38.31;51.15;;
77133;Laerm;26708;50.304;19.028;2023-03-30T02:34:33;41.59;38.39;52.67;;
77133;Laerm;26708;50.304;19.028;2023-03-30T02:37:17;49.95;39.09;67.82;;
77133;Laerm;26708;50.304;19.028;2023-03-30T02:39:46;42.86;38.33;49.86;;
77133;Laerm;26708;50.304;19.028;2023-03-30T02:42:23;42.46;38.28;52.15;;
77133;Laerm;26708;50.304;19.028;2023-03-30T02:44:48;51.41;39.18;70.98;;
77133;Laerm;26708;50.304;19.028;2023-03-30T02:47:07;44.96;39.39;57.19;;
77133;Laerm;26708;50.304;19.028;2023-03-30T02:49:31;43.69;39.58;52.83;;
77133;Laerm;26708;50.304;19.028;2023-03-30T02:51:48;42.62;38.99;50.75;;
77133;Laerm;26708;50.304;19.028;2023-03-30T02:54:20;44.29;39.94;51.44;;
77133;Laerm;26708;50.304;19.028;2023-03-30T02:57:08;44.30;39.66;53.23;;
77133;Laerm;26708;50.304;19.028;2023-03-30T02:59:21;48.85;39.68;64.50;;
77133;Laerm;26708;50.304;19.028;2023-03-30T03:01:41;44.54;39.29;59.25;;
77133;Laerm;26708;50.304;19.028;2023-03-30T03:03:56;55.28;40.03;72.11;;
77133;Laerm;26708;50.304;19.028;2023-03-30T03:06:08;55.78;39.88;72.44;;
77133;Laerm;26708;50.304;19.028;2023-03-30T03:08:23;55.91;39.15;75.08;;
77133;Laerm;26708;50.304;19.028;2023-03-30T03:10:29;55.31;39.94;73.29;;
77133;Laerm;26708;50.304;19.028;2023-03-30T03:12:37;56.78;40.89;71.74;;
77133;Laerm;26708;50.304;19.028;2023-03-30T03:14:42;56.74;41.38;71.67;;
77133;Laerm;26708;50.304;19.028;2023-03-30T03:16:50;55.73;40.08;72.66;;
77133;Laerm;26708;50.304;19.028;2023-03-30T03:18:58;55.06;39.28;72.43;;
77133;Laerm;26708;50.304;19.028;2023-03-30T03:21:04;57.00;39.47;73.47;;
77133;Laerm;26708;50.304;19.028;2023-03-30T03:23:09;52.72;41.28;66.44;;
77133;Laerm;26708;50.304;19.028;2023-03-30T03:25:19;45.02;40.31;57.06;;
77133;Laerm;26708;50.304;19.028;2023-03-30T03:27:32;48.22;40.85;70.91;;
77133;Laerm;26708;50.304;19.028;2023-03-30T03:29:58;53.54;41.80;68.88;;
77133;Laerm;26708;50.304;19.028;2023-03-30T03:32:05;47.19;41.24;54.77;;
77133;Laerm;26708;50.304;19.028;2023-03-30T03:34:19;46.74;41.35;54.92;;
77133;Laerm;26708;50.304;19.028;2023-03-30T03:36:33;50.90;41.44;62.82;;
77133;Laerm;26708;50.304;19.028;2023-03-30T03:38:39;54.97;45.55;71.98;;
77133;Laerm;26708;50.304;19.028;2023-03-30T03:40:48;66.52;46.95;98.44;;
77133;Laerm;26708;50.304;19.028;2023-03-30T03:42:54;54.28;42.13;71.58;;
77133;Laerm;26708;50.304;19.028;2023-03-30T03:45:01;47.05;41.08;64.93;;
77133;Laerm;26708;50.304;19.028;2023-03-30T03:47:09;54.43;41.43;72.66;;
77133;Laerm;26708;50.304;19.028;2023-03-30T03:49:15;51.10;41.97;67.37;;
77133;Laerm;26708;50.304;19.028;2023-03-30T03:51:20;51.83;41.66;67.28;;
77133;Laerm;26708;50.304;19.028;2023-03-30T03:53:32;53.42;40.76;70.81;;
77133;Laerm;26708;50.304;19.028;2023-03-30T03:55:43;52.48;41.14;68.00;;
77133;Laerm;26708;50.304;19.028;2023-03-30T03:57:48;55.30;41.99;70.55;;
77133;Laerm;26708;50.304;19.028;2023-03-30T03:59:52;53.05;40.63;70.04;;
77133;Laerm;26708;50.304;19.028;2023-03-30T04:02:01;44.68;40.18;50.42;;
77133;Laerm;26708;50.304;19.028;2023-03-30T04:04:10;52.73;40.04;72.77;;
77133;Laerm;26708;50.304;19.028;2023-03-30T04:06:24;52.76;40.36;67.51;;
77133;Laerm;26708;50.304;19.028;2023-03-30T04:08:29;49.88;40.94;67.19;;
77133;Laerm;26708;50.304;19.028;2023-03-30T04:11:06;51.49;41.96;64.69;;
77133;Laerm;26708;50.304;19.028;2023-03-30T04:13:24;52.72;41.93;66.95;;
77133;Laerm;26708;50.304;19.028;2023-03-30T04:16:03;54.25;41.71;68.31;;
77133;Laerm;26708;50.304;19.028;2023-03-30T04:18:19;50.92;41.12;68.85;;
77133;Laerm;26708;50.304;19.028;2023-03-30T04:20:38;55.18;41.74;66.36;;
77133;Laerm;26708;50.304;19.028;2023-03-30T04:23:13;51.68;41.68;66.07;;
77133;Laerm;26708;50.304;19.028;2023-03-30T04:26:00;52.84;41.31;67.78;;
77133;Laerm;26708;50.304;19.028;2023-03-30T04:28:34;53.68;42.15;67.51;;
77133;Laerm;26708;50.304;19.028;2023-03-30T04:31:10;55.48;42.95;69.09;;
77133;Laerm;26708;50.304;19.028;2023-03-30T04:33:37;53.92;43.47;65.95;;
77133;Laerm;26708;50.304;19.028;2023-03-30T04:36:14;60.84;44.81;80.13;;
77133;Laerm;26708;50.304;19.028;2023-03-30T04:38:37;54.90;43.06;70.03;;
77133;Laerm;26708;50.304;19.028;2023-03-30T04:41:00;53.61;43.65;69.60;;
77133;Laerm;26708;50.304;19.028;2023-03-30T04:43:34;55.62;43.90;73.47;;
77133;Laerm;26708;50.304;19.028;2023-03-30T04:45:56;53.57;43.70;68.52;;
77133;Laerm;26708;50.304;19.028;2023-03-30T04:48:17;57.85;44.49;70.68;;
77133;Laerm;26708;50.304;19.028;2023-03-30T04:50:28;52.75;43.65;68.46;;
77133;Laerm;26708;50.304;19.028;2023-03-30T04:53:05;57.17;44.86;69.08;;
77133;Laerm;26708;50.304;19.028;2023-03-30T04:55:28;58.90;44.25;72.74;;
77133;Laerm;26708;50.304;19.028;2023-03-30T04:57:42;55.65;42.50;68.75;;
77133;Laerm;26708;50.304;19.028;2023-03-30T05:00:17;59.56;44.78;76.35;;
77133;Laerm;26708;50.304;19.028;2023-03-30T05:02:37;52.38;45.31;67.17;;
77133;Laerm;26708;50.304;19.028;2023-03-30T05:05:08;56.56;44.52;70.62;;
77133;Laerm;26708;50.304;19.028;2023-03-30T05:07:44;55.25;42.94;68.61;;
77133;Laerm;26708;50.304;19.028;2023-03-30T05:10:10;58.67;44.43;72.07;;
77133;Laerm;26708;50.304;19.028;2023-03-30T05:12:38;56.27;43.41;67.77;;
77133;Laerm;26708;50.304;19.028;2023-03-30T05:14:53;56.11;42.65;71.14;;
77133;Laerm;26708;50.304;19.028;2023-03-30T05:17:47;59.58;42.57;72.23;;
77133;Laerm;26708;50.304;19.028;2023-03-30T05:20:03;57.26;42.72;70.24;;
77133;Laerm;26708;50.304;19.028;2023-03-30T05:22:27;58.38;44.33;69.53;;
77133;Laerm;26708;50.304;19.028;2023-03-30T05:24:55;55.22;44.54;70.71;;
77133;Laerm;26708;50.304;19.028;2023-03-30T05:27:14;52.82;43.04;68.80;;
77133;Laerm;26708;50.304;19.028;2023-03-30T05:29:39;56.06;44.02;68.76;;
77133;Laerm;26708;50.304;19.028;2023-03-30T05:32:01;60.01;43.05;78.76;;
77133;Laerm;26708;50.304;19.028;2023-03-30T05:34:23;54.17;44.45;66.01;;
77133;Laerm;26708;50.304;19.028;2023-03-30T05:36:33;53.54;44.67;65.66;;
77133;Laerm;26708;50.304;19.028;2023-03-30T05:38:50;53.60;43.71;69.10;;
77133;Laerm;26708;50.304;19.028;2023-03-30T05:41:18;56.53;43.83;69.84;;
77133;Laerm;26708;50.304;19.028;2023-03-30T05:43:32;56.66;44.74;71.44;;
77133;Laerm;26708;50.304;19.028;2023-03-30T05:45:57;57.19;42.79;69.43;;
77133;Laerm;26708;50.304;19.028;2023-03-30T05:48:12;55.59;42.99;72.36;;
77133;Laerm;26708;50.304;19.028;2023-03-30T05:50:24;59.10;44.41;70.66;;
77133;Laerm;26708;50.304;19.028;2023-03-30T05:52:33;55.45;43.62;71.66;;
77133;Laerm;26708;50.304;19.028;2023-03-30T05:54:50;48.11;44.31;55.43;;
77133;Laerm;26708;50.304;19.028;2023-03-30T05:57:07;55.25;44.06;68.98;;
77133;Laerm;26708;50.304;19.028;2023-03-30T05:59:19;57.06;44.50;72.27;;
77133;Laerm;26708;50.304;19.028;2023-03-30T06:01:43;56.61;44.23;69.13;;
77133;Laerm;26708;50.304;19.028;2023-03-30T06:03:48;55.04;43.62;70.45;;
77133;Laerm;26708;50.304;19.028;2023-03-30T06:05:55;55.61;43.04;69.33;;
77133;Laerm;26708;50.304;19.028;2023-03-30T06:08:01;56.20;43.61;70.50;;
77133;Laerm;26708;50.304;19.028;2023-03-30T06:10:07;57.18;44.36;69.08;;
77133;Laerm;26708;50.304;19.028;2023-03-30T06:12:12;64.26;45.58;78.87;;
77133;Laerm;26708;50.304;19.028;2023-03-30T06:14:17;55.20;43.32;67.59;;
77133;Laerm;26708;50.304;19.028;2023-03-30T06:16:42;57.21;44.24;69.36;;
77133;Laerm;26708;50.304;19.028;2023-03-30T06:18:48;57.20;44.02;70.55;;
77133;Laerm;26708;50.304;19.028;2023-03-30T06:20:56;57.38;43.46;69.94;;
77133;Laerm;26708;50.304;19.028;2023-03-30T06:23:03;54.40;43.95;70.48;;
77133;Laerm;26708;50.304;19.028;2023-03-30T06:25:09;55.09;42.94;68.56;;
77133;Laerm;26708;50.304;19.028;2023-03-30T06:27:15;55.31;42.27;69.08;;
77133;Laerm;26708;50.304;19.028;2023-03-30T06:29:21;55.55;43.26;70.13;;
77133;Laerm;26708;50.304;19.028;2023-03-30T06:31:25;56.02;43.45;68.76;;
77133;Laerm;26708;50.304;19.028;2023-03-30T06:33:48;56.39;43.86;69.98;;
77133;Laerm;26708;50.304;19.028;2023-03-30T06:35:56;60.32;46.05;73.64;;
77133;Laerm;26708;50.304;19.028;2023-03-30T06:38:00;58.77;43.53;75.54;;
77133;Laerm;26708;50.304;19.028;2023-03-30T06:40:08;57.21;42.68;69.12;;
77133;Laerm;26708;50.304;19.028;2023-03-30T06:42:14;55.20;43.71;66.84;;
77133;Laerm;26708;50.304;19.028;2023-03-30T06:44:35;57.44;44.09;70.94;;
77133;Laerm;26708;50.304;19.028;2023-03-30T06:46:46;56.60;43.10;69.73;;
77133;Laerm;26708;50.304;19.028;2023-03-30T06:48:51;57.13;43.41;67.41;;
77133;Laerm;26708;50.304;19.028;2023-03-30T06:51:16;56.61;43.76;71.45;;
77133;Laerm;26708;50.304;19.028;2023-03-30T06:53:23;56.15;43.09;70.57;;
77133;Laerm;26708;50.304;19.028;2023-03-30T06:55:28;56.49;43.66;68.56;;
77133;Laerm;26708;50.304;19.028;2023-03-30T06:57:33;58.83;44.43;70.54;;
77133;Laerm;26708;50.304;19.028;2023-03-30T06:59:38;60.51;43.29;79.52;;
77133;Laerm;26708;50.304;19.028;2023-03-30T07:01:55;57.84;43.68;68.21;;
77133;Laerm;26708;50.304;19.028;2023-03-30T07:04:26;59.07;43.11;74.47;;
77133;Laerm;26708;50.304;19.028;2023-03-30T07:06:53;57.74;45.62;71.80;;
77133;Laerm;26708;50.304;19.028;2023-03-30T07:08:59;56.67;44.03;68.33;;
77133;Laerm;26708;50.304;19.028;2023-03-30T07:11:05;54.71;43.32;66.70;;
77133;Laerm;26708;50.304;19.028;2023-03-30T07:13:15;56.39;43.85;70.31;;
77133;Laerm;26708;50.304;19.028;2023-03-30T07:15:22;56.47;43.46;69.38;;
77133;Laerm;26708;50.304;19.028;2023-03-30T07:17:27;56.20;43.35;70.85;;
77133;Laerm;26708;50.304;19.028;2023-03-30T07:19:34;57.66;42.98;69.19;;
77133;Laerm;26708;50.304;19.028;2023-03-30T07:21:38;54.89;43.03;70.52;;
77133;Laerm;26708;50.304;19.028;2023-03-30T07:23:48;56.53;43.36;71.49;;
77133;Laerm;26708;50.304;19.028;2023-03-30T07:26:06;56.70;43.00;69.19;;
77133;Laerm;26708;50.304;19.028;2023-03-30T07:28:34;57.13;44.17;69.58;;
77133;Laerm;26708;50.304;19.028;2023-03-30T07:30:41;59.40;43.84;71.39;;
77133;Laerm;26708;50.304;19.028;2023-03-30T07:32:47;54.50;42.29;65.75;;
77133;Laerm;26708;50.304;19.028;2023-03-30T07:34:52;57.11;43.41;71.00;;
77133;Laerm;26708;50.304;19.028;2023-03-30T07:37:00;54.58;43.28;68.59;;
77133;Laerm;26708;50.304;19.028;2023-03-30T07:39:10;57.31;43.38;69.08;;
77133;Laerm;26708;50.304;19.028;2023-03-30T07:41:18;56.51;43.20;67.66;;
77133;Laerm;26708;50.304;19.028;2023-03-30T07:43:27;56.16;42.58;70.03;;
77133;Laerm;26708;50.304;19.028;2023-03-30T07:45:33;54.76;44.26;67.79;;
77133;Laerm;26708;50.304;19.028;2023-03-30T07:47:40;56.79;44.15;69.80;;
77133;Laerm;26708;50.304;19.028;2023-03-30T07:49:45;56.07;44.08;66.93;;
77133;Laerm;26708;50.304;19.028;2023-03-30T07:51:52;56.48;43.96;70.15;;
77133;Laerm;26708;50.304;19.028;2023-03-30T07:54:05;57.71;42.25;71.48;;
77133;Laerm;26708;50.304;19.028;2023-03-30T07:56:43;58.00;43.50;69.38;;
77133;Laerm;26708;50.304;19.028;2023-03-30T07:58:54;58.42;42.73;71.48;;
77133;Laerm;26708;50.304;19.028;2023-03-30T08:01:04;57.49;44.04;71.23;;
77133;Laerm;26708;50.304;19.028;2023-03-30T08:03:11;58.14;43.46;70.02;;
77133;Laerm;26708;50.304;19.028;2023-03-30T08:05:17;56.95;43.35;70.45;;
77133;Laerm;26708;50.304;19.028;2023-03-30T08:07:41;59.04;44.37;73.38;;
77133;Laerm;26708;50.304;19.028;2023-03-30T08:09:58;57.05;45.85;69.38;;
77133;Laerm;26708;50.304;19.028;2023-03-30T08:12:06;59.27;45.87;73.89;;
77133;Laerm;26708;50.304;19.028;2023-03-30T08:14:11;55.17;44.77;66.12;;
77133;Laerm;26708;50.304;19.028;2023-03-30T08:16:15;56.07;42.29;65.80;;
77133;Laerm;26708;50.304;19.028;2023-03-30T08:18:21;58.84;42.77;71.99;;
77133;Laerm;26708;50.304;19.028;2023-03-30T08:20:25;57.09;43.44;69.15;;
77133;Laerm;26708;50.304;19.028;2023-03-30T08:22:30;54.25;44.71;65.17;;
77133;Laerm;26708;50.304;19.028;2023-03-30T08:24:36;59.86;43.15;72.80;;
77133;Laerm;26708;50.304;19.028;2023-03-30T08:26:41;57.13;43.69;68.16;;
77133;Laerm;26708;50.304;19.028;2023-03-30T08:28:48;56.62;43.31;69.25;;
77133;Laerm;26708;50.304;19.028;2023-03-30T08:30:54;53.35;42.46;67.18;;
77133;Laerm;26708;50.304;19.028;2023-03-30T08:32:58;59.31;45.34;75.85;;
77133;Laerm;26708;50.304;19.028;2023-03-30T08:35:05;58.43;42.81;74.69;;
77133;Laerm;26708;50.304;19.028;2023-03-30T08:37:11;58.39;44.09;70.00;;
77133;Laerm;26708;50.304;19.028;2023-03-30T08:39:15;56.24;42.50;66.78;;
77133;Laerm;26708;50.304;19.028;2023-03-30T08:41:52;57.86;44.07;69.42;;
77133;Laerm;26708;50.304;19.028;2023-03-30T08:44:18;58.01;43.43;74.75;;
77133;Laerm;26708;50.304;19.028;2023-03-30T08:46:28;57.76;45.43;71.73;;
77133;Laerm;26708;50.304;19.028;2023-03-30T08:48:35;57.00;43.54;68.41;;
77133;Laerm;26708;50.304;19.028;2023-03-30T08:50:56;60.11;42.92;74.75;;
77133;Laerm;26708;50.304;19.028;2023-03-30T08:53:04;54.46;43.60;65.37;;
77133;Laerm;26708;50.304;19.028;2023-03-30T08:55:23;56.95;44.13;72.41;;
77133;Laerm;26708;50.304;19.028;2023-03-30T08:57:46;66.56;44.91;89.87;;
77133;Laerm;26708;50.304;19.028;2023-03-30T09:00:17;56.42;44.00;74.23;;
77133;Laerm;26708;50.304;19.028;2023-03-30T09:02:34;56.11;43.24;73.41;;
77133;Laerm;26708;50.304;19.028;2023-03-30T09:04:54;56.19;43.74;70.38;;
77133;Laerm;26708;50.304;19.028;2023-03-30T09:07:12;56.22;44.13;67.96;;
77133;Laerm;26708;50.304;19.028;2023-03-30T09:09:25;59.29;43.96;74.86;;
77133;Laerm;26708;50.304;19.028;2023-03-30T09:11:36;56.58;43.32;71.82;;
77133;Laerm;26708;50.304;19.028;2023-03-30T09:13:44;57.92;43.50;76.60;;
77133;Laerm;26708;50.304;19.028;2023-03-30T09:15:57;60.78;43.81;74.45;;
77133;Laerm;26708;50.304;19.028;2023-03-30T09:18:16;59.42;45.71;69.52;;
77133;Laerm;26708;50.304;19.028;2023-03-30T09:20:25;63.90;43.86;84.46;;
77133;Laerm;26708;50.304;19.028;2023-03-30T09:22:38;59.69;44.33;74.58;;
77133;Laerm;26708;50.304;19.028;2023-03-30T09:24:43;55.21;43.61;66.40;;
77133;Laerm;26708;50.304;19.028;2023-03-30T09:26:57;58.34;43.99;68.61;;
77133;Laerm;26708;50.304;19.028;2023-03-30T09:29:16;55.27;43.67;67.86;;
77133;Laerm;26708;50.304;19.028;2023-03-30T09:31:38;56.61;43.78;69.32;;
77133;Laerm;26708;50.304;19.028;2023-03-30T09:33:51;54.98;42.65;69.94;;
77133;Laerm;26708;50.304;19.028;2023-03-30T09:36:13;57.15;43.81;69.51;;
77133;Laerm;26708;50.304;19.028;2023-03-30T09:38:19;55.33;43.06;67.44;;
77133;Laerm;26708;50.304;19.028;2023-03-30T09:40:43;54.98;43.49;66.90;;
77133;Laerm;26708;50.304;19.028;2023-03-30T09:43:05;52.12;43.12;66.37;;
77133;Laerm;26708;50.304;19.028;2023-03-30T09:45:20;60.43;42.03;76.54;;
77133;Laerm;26708;50.304;19.028;2023-03-30T09:47:34;54.82;42.35;70.41;;
77133;Laerm;26708;50.304;19.028;2023-03-30T09:49:39;54.93;42.37;66.89;;
77133;Laerm;26708;50.304;19.028;2023-03-30T09:52:00;56.40;43.31;67.35;;
77133;Laerm;26708;50.304;19.028;2023-03-30T09:54:10;57.44;43.45;70.32;;
77133;Laerm;26708;50.304;19.028;2023-03-30T09:56:25;54.86;42.84;68.35;;
77133;Laerm;26708;50.304;19.028;2023-03-30T09:58:33;54.56;44.26;65.52;;
77133;Laerm;26708;50.304;19.028;2023-03-30T10:00:39;59.00;43.89;70.17;;
77133;Laerm;26708;50.304;19.028;2023-03-30T10:02:55;56.47;46.34;70.59;;
77133;Laerm;26708;50.304;19.028;2023-03-30T10:05:03;57.12;45.09;71.27;;
77133;Laerm;26708;50.304;19.028;2023-03-30T10:07:21;59.88;42.49;76.03;;
77133;Laerm;26708;50.304;19.028;2023-03-30T10:09:26;56.25;43.94;71.89;;
77133;Laerm;26708;50.304;19.028;2023-03-30T10:11:39;57.23;43.78;67.42;;
77133;Laerm;26708;50.304;19.028;2023-03-30T10:13:45;58.59;43.62;68.83;;
77133;Laerm;26708;50.304;19.028;2023-03-30T10:15:53;62.84;42.28;82.37;;
77133;Laerm;26708;50.304;19.028;2023-03-30T10:18:25;56.12;43.63;69.80;;
77133;Laerm;26708;50.304;19.028;2023-03-30T10:20:35;53.52;43.43;65.69;;
77133;Laerm;26708;50.304;19.028;2023-03-30T10:22:50;58.65;43.05;68.24;;
77133;Laerm;26708;50.304;19.028;2023-03-30T10:24:55;55.28;44.00;67.68;;
77133;Laerm;26708;50.304;19.028;2023-03-30T10:27:10;62.85;43.81;78.91;;
77133;Laerm;26708;50.304;19.028;2023-03-30T10:29:18;56.53;45.45;68.70;;
77133;Laerm;26708;50.304;19.028;2023-03-30T10:31:27;56.94;44.47;66.99;;
77133;Laerm;26708;50.304;19.028;2023-03-30T10:33:42;55.60;44.32;71.12;;
77133;Laerm;26708;50.304;19.028;2023-03-30T10:35:51;54.95;43.41;68.67;;
77133;Laerm;26708;50.304;19.028;2023-03-30T10:38:01;54.76;44.03;71.00;;
77133;Laerm;26708;50.304;19.028;2023-03-30T10:40:17;68.85;45.21;94.10;;
77133;Laerm;26708;50.304;19.028;2023-03-30T10:42:26;54.46;44.06;70.12;;
77133;Laerm;26708;50.304;19.028;2023-03-30T10:44:41;58.38;44.78;71.22;;
77133;Laerm;26708;50.304;19.028;2023-03-30T10:46:52;55.62;44.99;67.08;;
77133;Laerm;26708;50.304;19.028;2023-03-30T10:49:16;55.32;44.92;65.74;;
77133;Laerm;26708;50.304;19.028;2023-03-30T10:51:44;57.34;44.81;68.94;;
77133;Laerm;26708;50.304;19.028;2023-03-30T10:54:08;53.40;42.95;66.96;;
77133;Laerm;26708;50.304;19.028;2023-03-30T10:56:26;56.65;44.18;69.78;;
77133;Laerm;26708;50.304;19.028;2023-03-30T11:01:35;56.87;44.74;68.92;;
77133;Laerm;26708;50.304;19.028;2023-03-30T11:03:54;58.40;44.26;77.05;;
77133;Laerm;26708;50.304;19.028;2023-03-30T11:06:10;55.87;42.84;66.34;;
77133;Laerm;26708;50.304;19.028;2023-03-30T11:08:21;55.90;43.46;67.43;;
77133;Laerm;26708;50.304;19.028;2023-03-30T11:10:32;55.39;44.27;64.83;;
77133;Laerm;26708;50.304;19.028;2023-03-30T11:12:48;60.64;48.35;73.03;;
77133;Laerm;26708;50.304;19.028;2023-03-30T11:15:02;58.00;49.70;67.77;;
77133;Laerm;26708;50.304;19.028;2023-03-30T11:17:20;58.48;48.46;76.11;;
77133;Laerm;26708;50.304;19.028;2023-03-30T11:19:35;58.81;48.52;71.56;;
77133;Laerm;26708;50.304;19.028;2023-03-30T11:21:59;57.62;48.13;72.17;;
77133;Laerm;26708;50.304;19.028;2023-03-30T11:24:16;55.76;47.22;67.93;;
77133;Laerm;26708;50.304;19.028;2023-03-30T11:26:34;57.48;48.23;72.11;;
77133;Laerm;26708;50.304;19.028;2023-03-30T11:29:19;58.93;48.39;75.87;;
77133;Laerm;26708;50.304;19.028;2023-03-30T11:31:47;56.98;48.23;68.67;;
77133;Laerm;26708;50.304;19.028;2023-03-30T11:34:08;59.25;45.44;70.23;;
77133;Laerm;26708;50.304;19.028;2023-03-30T11:36:29;62.17;45.23;79.48;;
77133;Laerm;26708;50.304;19.028;2023-03-30T11:38:48;58.98;44.90;76.40;;
77133;Laerm;26708;50.304;19.028;2023-03-30T11:41:04;56.21;45.15;67.39;;
77133;Laerm;26708;50.304;19.028;2023-03-30T11:43:14;57.06;43.66;71.12;;
77133;Laerm;26708;50.304;19.028;2023-03-30T11:45:41;58.05;45.54;69.63;;
77133;Laerm;26708;50.304;19.028;2023-03-30T11:48:18;59.96;43.86;74.00;;
77133;Laerm;26708;50.304;19.028;2023-03-30T11:50:49;58.27;43.45;72.05;;
77133;Laerm;26708;50.304;19.028;2023-03-30T11:53:16;57.28;44.48;70.07;;
77133;Laerm;26708;50.304;19.028;2023-03-30T11:55:47;57.17;43.12;74.69;;
77133;Laerm;26708;50.304;19.028;2023-03-30T11:58:14;53.80;42.42;66.66;;
77133;Laerm;26708;50.304;19.028;2023-03-30T12:00:47;56.10;44.58;66.38;;
77133;Laerm;26708;50.304;19.028;2023-03-30T12:03:12;56.33;42.94;68.73;;
77133;Laerm;26708;50.304;19.028;2023-03-30T12:05:33;56.94;44.89;70.38;;
77133;Laerm;26708;50.304;19.028;2023-03-30T12:07:51;57.51;44.37;72.02;;
77133;Laerm;26708;50.304;19.028;2023-03-30T12:10:02;57.53;44.24;71.96;;
77133;Laerm;26708;50.304;19.028;2023-03-30T12:12:16;56.44;43.87;67.17;;
77133;Laerm;26708;50.304;19.028;2023-03-30T12:14:52;57.32;44.47;71.45;;
77133;Laerm;26708;50.304;19.028;2023-03-30T12:17:09;58.65;43.41;75.77;;
77133;Laerm;26708;50.304;19.028;2023-03-30T12:19:25;57.06;45.25;67.98;;
77133;Laerm;26708;50.304;19.028;2023-03-30T12:21:36;57.16;43.64;70.38;;
77133;Laerm;26708;50.304;19.028;2023-03-30T12:23:54;59.71;44.80;75.45;;
77133;Laerm;26708;50.304;19.028;2023-03-30T12:26:23;58.69;46.64;69.12;;
77133;Laerm;26708;50.304;19.028;2023-03-30T12:28:45;55.70;43.63;66.90;;
77133;Laerm;26708;50.304;19.028;2023-03-30T12:30:55;56.53;44.21;69.46;;
77133;Laerm;26708;50.304;19.028;2023-03-30T12:33:11;58.88;44.42;76.22;;
77133;Laerm;26708;50.304;19.028;2023-03-30T12:35:51;56.69;44.97;71.57;;